createdAt,value
2019-05-28T00:00:46.780Z,19.70
2019-05-28T00:03:16.150Z,19.70
2019-05-28T00:05:45.568Z,19.80
2019-05-28T00:08:14.872Z,19.80
2019-05-28T00:10:44.216Z,19.80
2019-05-28T00:13:15.779Z,19.80
2019-05-28T00:15:44.979Z,19.80
2019-05-28T00:18:14.278Z,19.80
2019-05-28T00:20:43.565Z,19.80
2019-05-28T00:23:12.864Z,19.80
2019-05-28T00:25:42.230Z,19.90
2019-05-28T00:28:12.966Z,19.80
2019-05-28T00:30:42.538Z,19.80
2019-05-28T00:33:11.863Z,19.80
2019-05-28T00:35:41.484Z,19.80
2019-05-28T00:38:11.131Z,19.80
2019-05-28T00:40:40.525Z,19.80
2019-05-28T00:43:09.856Z,19.70
2019-05-28T00:45:39.184Z,19.70
2019-05-28T00:48:08.382Z,19.60
2019-05-28T00:50:37.754Z,19.60
2019-05-28T00:53:07.064Z,19.50
2019-05-28T00:55:37.027Z,19.50
2019-05-28T00:58:06.563Z,19.50
2019-05-28T01:00:48.919Z,19.40
2019-05-28T01:03:18.407Z,19.40
2019-05-28T01:05:47.832Z,19.30
2019-05-28T01:08:18.117Z,19.30
2019-05-28T01:10:47.403Z,19.30
2019-05-28T01:13:17.803Z,19.30
2019-05-28T01:15:47.101Z,19.30
2019-05-28T01:18:16.284Z,19.20
2019-05-28T01:20:47.127Z,19.30
2019-05-28T01:23:16.756Z,19.30
2019-05-28T01:25:46.131Z,19.20
2019-05-28T01:28:15.442Z,19.20
2019-05-28T01:30:56.069Z,19.20
2019-05-28T01:33:18.809Z,19.20
2019-05-28T01:35:48.180Z,19.20
2019-05-28T01:38:17.646Z,19.20
2019-05-28T01:40:47.029Z,19.20
2019-05-28T01:43:16.407Z,19.20
2019-05-28T01:45:45.667Z,19.20
2019-05-28T01:48:15.014Z,19.10
2019-05-28T01:50:44.204Z,19.20
2019-05-28T01:53:13.710Z,19.10
2019-05-28T01:55:44.958Z,19.20
2019-05-28T01:58:14.333Z,19.20
2019-05-28T02:00:43.572Z,19.20
2019-05-28T02:03:14.034Z,19.20
2019-05-28T02:05:43.627Z,19.20
2019-05-28T02:08:13.080Z,19.20
2019-05-28T02:10:42.301Z,19.20
2019-05-28T02:13:11.630Z,19.10
2019-05-28T02:15:40.877Z,19.10
2019-05-28T02:18:10.200Z,19.00
2019-05-28T02:20:39.528Z,18.90
2019-05-28T02:23:08.874Z,18.90
2019-05-28T02:25:38.160Z,18.90
2019-05-28T02:28:07.683Z,18.80
2019-05-28T02:30:37.162Z,18.80
2019-05-28T02:33:06.540Z,18.80
2019-05-28T02:35:35.822Z,18.80
2019-05-28T02:38:10.774Z,18.70
2019-05-28T02:40:39.972Z,18.70
2019-05-28T02:43:09.377Z,18.70
2019-05-28T02:45:38.731Z,18.70
2019-05-28T02:48:08.618Z,18.80
2019-05-28T02:50:56.416Z,18.80
2019-05-28T02:53:27.391Z,18.80
2019-05-28T02:55:57.936Z,18.70
2019-05-28T02:58:35.408Z,18.70
2019-05-28T03:01:07.026Z,18.70
2019-05-28T03:03:36.600Z,18.70
2019-05-28T03:06:08.135Z,18.60
2019-05-28T03:08:37.555Z,18.60
2019-05-28T03:11:06.955Z,18.60
2019-05-28T03:13:36.507Z,18.50
2019-05-28T03:16:07.612Z,18.40
2019-05-28T03:18:39.528Z,18.40
2019-05-28T03:21:11.743Z,18.30
2019-05-28T03:23:42.255Z,18.30
2019-05-28T03:26:11.939Z,18.30
2019-05-28T03:28:41.599Z,18.20
2019-05-28T03:31:10.826Z,18.20
2019-05-28T03:33:40.175Z,18.10
2019-05-28T03:36:12.671Z,18.00
2019-05-28T03:38:43.899Z,17.90
2019-05-28T03:41:13.363Z,17.80
2019-05-28T03:43:42.734Z,17.70
2019-05-28T03:46:12.181Z,17.50
2019-05-28T03:48:41.832Z,17.50
2019-05-28T03:51:11.404Z,17.40
2019-05-28T03:53:40.821Z,17.40
2019-05-28T03:56:10.100Z,17.40
2019-05-28T03:58:48.631Z,17.40
2019-05-28T04:01:17.952Z,17.40
2019-05-28T04:03:47.311Z,17.40
2019-05-28T04:06:33.855Z,17.40
2019-05-28T04:09:04.558Z,17.30
2019-05-28T04:11:44.363Z,17.40
2019-05-28T04:14:04.797Z,17.40
2019-05-28T04:16:43.344Z,17.30
2019-05-28T04:19:12.976Z,17.30
2019-05-28T04:21:42.554Z,17.30
2019-05-28T04:24:13.916Z,17.20
2019-05-28T04:26:45.635Z,17.20
2019-05-28T04:29:15.174Z,17.20
2019-05-28T04:31:44.560Z,17.20
2019-05-28T04:34:15.798Z,17.20
2019-05-28T04:36:45.111Z,17.10
2019-05-28T04:39:14.410Z,17.10
2019-05-28T04:41:45.695Z,17.10
2019-05-28T04:44:17.283Z,17.10
2019-05-28T04:46:49.220Z,17.00
2019-05-28T04:49:24.746Z,17.00
2019-05-28T04:51:54.098Z,17.00
2019-05-28T04:54:23.406Z,17.00
2019-05-28T04:57:04.848Z,17.00
2019-05-28T04:59:34.570Z,17.00
2019-05-28T05:02:04.153Z,17.10
2019-05-28T05:04:33.738Z,17.10
2019-05-28T05:07:03.394Z,17.10
2019-05-28T05:09:32.987Z,17.10
2019-05-28T05:12:02.626Z,17.20
2019-05-28T05:14:32.061Z,17.20
2019-05-28T05:17:01.711Z,17.30
2019-05-28T05:19:31.039Z,17.30
2019-05-28T05:22:00.501Z,17.40
2019-05-28T05:24:38.081Z,17.40
2019-05-28T05:27:11.330Z,17.40
2019-05-28T05:29:40.613Z,17.40
2019-05-28T05:32:12.771Z,17.50
2019-05-28T05:34:42.039Z,17.50
2019-05-28T05:37:11.274Z,17.50
2019-05-28T05:39:41.927Z,17.60
2019-05-28T05:42:11.319Z,17.60
2019-05-28T05:44:43.808Z,17.60
2019-05-28T05:47:13.187Z,17.70
2019-05-28T05:49:42.617Z,17.70
2019-05-28T05:52:12.126Z,17.70
2019-05-28T05:54:41.293Z,17.70
2019-05-28T05:57:10.702Z,17.70
2019-05-28T05:59:40.111Z,17.70
2019-05-28T06:02:09.455Z,17.70
2019-05-28T06:04:40.515Z,17.60
2019-05-28T06:07:10.828Z,17.60
2019-05-28T06:09:40.273Z,17.60
2019-05-28T06:12:09.669Z,17.60
2019-05-28T06:14:38.977Z,17.50
2019-05-28T06:17:10.555Z,17.50
2019-05-28T06:19:39.897Z,17.40
2019-05-28T06:22:09.308Z,17.40
2019-05-28T06:24:38.877Z,17.30
2019-05-28T06:27:11.275Z,17.10
2019-05-28T06:29:40.576Z,17.10
2019-05-28T06:32:10.021Z,17.00
2019-05-28T06:34:39.408Z,16.80
2019-05-28T06:37:08.713Z,16.70
2019-05-28T06:39:38.074Z,16.60
2019-05-28T06:42:07.480Z,16.60
2019-05-28T06:44:36.650Z,16.50
2019-05-28T06:47:06.030Z,16.50
2019-05-28T06:49:37.310Z,16.50
2019-05-28T06:52:07.137Z,16.50
2019-05-28T06:54:40.711Z,16.50
2019-05-28T06:57:22.464Z,16.50
2019-05-28T06:59:41.144Z,16.50
2019-05-28T07:02:10.636Z,16.50
2019-05-28T07:04:47.976Z,16.50
2019-05-28T07:07:18.760Z,16.50
2019-05-28T07:09:49.833Z,16.60
2019-05-28T07:12:19.229Z,16.70
2019-05-28T07:14:49.084Z,16.80
2019-05-28T07:17:22.930Z,16.90
2019-05-28T07:19:54.817Z,17.00
2019-05-28T07:22:24.759Z,17.00
2019-05-28T07:24:54.208Z,17.00
2019-05-28T07:27:24.669Z,17.10
2019-05-28T07:29:56.488Z,17.10
2019-05-28T07:32:38.572Z,17.10
2019-05-28T07:35:12.051Z,17.20
2019-05-28T07:37:41.646Z,17.20
2019-05-28T07:40:31.193Z,17.30
2019-05-28T07:42:56.099Z,17.40
2019-05-28T07:45:25.403Z,17.50
2019-05-28T07:48:04.955Z,17.50
2019-05-28T07:50:34.859Z,17.50
2019-05-28T07:53:06.514Z,17.50
2019-05-28T07:55:35.893Z,17.50
2019-05-28T07:58:05.361Z,17.50
2019-05-28T08:00:40.346Z,17.70
2019-05-28T08:03:12.811Z,17.70
2019-05-28T08:05:42.140Z,17.70
2019-05-28T08:08:13.497Z,17.70
2019-05-28T08:10:42.965Z,17.60
2019-05-28T08:13:12.573Z,17.70
2019-05-28T08:15:42.895Z,17.80
2019-05-28T08:18:14.943Z,17.90
2019-05-28T08:20:51.462Z,18.00
2019-05-28T08:23:31.469Z,18.10
2019-05-28T08:26:02.140Z,18.10
2019-05-28T08:28:33.147Z,18.20
2019-05-28T08:31:14.878Z,18.10
2019-05-28T08:33:41.302Z,18.00
2019-05-28T08:36:16.246Z,18.00
2019-05-28T08:38:48.014Z,17.90
2019-05-28T08:41:20.883Z,17.80
2019-05-28T08:43:50.189Z,17.70
2019-05-28T08:46:20.121Z,17.70
2019-05-28T08:48:55.520Z,17.70
2019-05-28T08:51:30.533Z,17.80
2019-05-28T08:54:03.243Z,17.80
2019-05-28T08:56:37.010Z,17.80
2019-05-28T08:59:06.764Z,17.70
2019-05-28T09:01:41.748Z,17.80
2019-05-28T09:04:11.122Z,17.80
2019-05-28T09:06:41.607Z,17.90
2019-05-28T09:09:19.179Z,18.00
2019-05-28T09:11:48.599Z,18.10
2019-05-28T09:14:17.999Z,18.10
2019-05-28T09:16:54.688Z,18.20
2019-05-28T09:19:24.691Z,18.20
2019-05-28T09:21:54.691Z,18.20
2019-05-28T09:24:31.724Z,18.20
2019-05-28T09:27:01.642Z,18.10
2019-05-28T09:29:34.656Z,18.20
2019-05-28T09:32:06.351Z,18.20
2019-05-28T09:34:38.794Z,18.20
2019-05-28T09:37:10.460Z,18.20
2019-05-28T09:39:39.789Z,18.30
2019-05-28T09:42:09.891Z,18.30
2019-05-28T09:44:39.167Z,18.50
2019-05-28T09:47:09.236Z,18.60
2019-05-28T09:49:39.102Z,18.70
2019-05-28T09:52:09.315Z,18.80
2019-05-28T09:54:39.119Z,18.90
2019-05-28T09:57:11.429Z,19.10
2019-05-28T09:59:46.418Z,19.30
2019-05-28T10:02:24.655Z,19.40
2019-05-28T10:04:54.617Z,19.60
2019-05-28T10:07:24.810Z,19.80
2019-05-28T10:09:55.824Z,19.90
2019-05-28T10:12:35.149Z,20.10
2019-05-28T10:15:06.349Z,20.30
2019-05-28T10:17:36.059Z,20.50
2019-05-28T10:20:06.809Z,20.70
2019-05-28T10:22:39.031Z,20.80
2019-05-28T10:25:09.648Z,20.90
2019-05-28T10:27:58.494Z,20.90
2019-05-28T10:30:13.868Z,21.00
2019-05-28T10:32:44.899Z,21.10
2019-05-28T10:35:15.590Z,21.20
2019-05-28T10:37:45.419Z,21.30
2019-05-28T10:40:22.686Z,21.30
2019-05-28T10:42:52.685Z,21.40
2019-05-28T10:45:22.743Z,21.50
2019-05-28T10:47:58.811Z,21.50
2019-05-28T10:50:29.896Z,21.50
2019-05-28T10:52:59.195Z,21.40
2019-05-28T10:55:28.674Z,21.40
2019-05-28T10:57:58.442Z,21.30
2019-05-28T11:00:28.033Z,21.40
2019-05-28T11:02:57.408Z,21.30
2019-05-28T11:05:28.363Z,21.20
2019-05-28T11:07:58.927Z,21.10
2019-05-28T11:10:29.194Z,21.10
2019-05-28T11:12:58.529Z,21.10
2019-05-28T11:15:30.848Z,21.00
2019-05-28T11:18:01.087Z,21.00
2019-05-28T11:20:38.948Z,21.00
2019-05-28T11:23:11.483Z,21.00
2019-05-28T11:25:42.432Z,21.00
2019-05-28T11:28:18.382Z,21.10
2019-05-28T11:30:54.768Z,21.10
2019-05-28T11:33:39.624Z,21.10
2019-05-28T11:36:16.814Z,21.20
2019-05-28T11:38:52.019Z,21.20
2019-05-28T11:41:22.008Z,21.10
2019-05-28T11:43:51.537Z,21.10
2019-05-28T11:46:21.012Z,21.00
2019-05-28T11:48:51.408Z,21.00
2019-05-28T11:51:20.824Z,21.00
2019-05-28T11:53:50.081Z,21.00
2019-05-28T11:56:19.888Z,21.00
2019-05-28T11:58:51.369Z,21.10
2019-05-28T12:01:33.640Z,21.20
2019-05-28T12:03:54.084Z,21.30
2019-05-28T12:06:23.772Z,21.30
2019-05-28T12:08:53.661Z,21.30
2019-05-28T12:11:23.280Z,21.20
2019-05-28T12:13:52.979Z,21.30
2019-05-28T12:16:22.270Z,21.30
2019-05-28T12:18:51.963Z,21.40
2019-05-28T12:21:21.399Z,21.40
2019-05-28T12:23:50.591Z,21.50
2019-05-28T12:26:19.809Z,21.60
2019-05-28T12:28:49.223Z,21.70
2019-05-28T12:31:18.797Z,21.90
2019-05-28T12:33:48.119Z,22.10
2019-05-28T12:36:17.572Z,22.30
2019-05-28T12:38:46.978Z,22.40
2019-05-28T12:41:16.195Z,22.50
2019-05-28T12:43:45.712Z,22.60
2019-05-28T12:46:15.304Z,22.70
2019-05-28T12:48:45.226Z,22.80
2019-05-28T12:51:15.383Z,22.80
2019-05-28T12:54:03.759Z,22.70
2019-05-28T12:56:33.275Z,22.50
2019-05-28T12:59:02.869Z,22.40
2019-05-28T13:01:33.034Z,22.30
2019-05-28T13:04:04.882Z,22.30
2019-05-28T13:06:34.094Z,22.20
2019-05-28T13:09:04.409Z,22.10
2019-05-28T13:11:34.053Z,22.00
2019-05-28T13:14:03.724Z,21.90
2019-05-28T13:16:34.221Z,21.80
2019-05-28T13:19:03.732Z,21.70
2019-05-28T13:21:33.420Z,21.70
2019-05-28T13:24:03.319Z,21.70
2019-05-28T13:26:33.642Z,21.70
2019-05-28T13:29:03.271Z,21.80
2019-05-28T13:31:32.660Z,21.80
2019-05-28T13:34:02.246Z,21.90
2019-05-28T13:36:31.518Z,22.00
2019-05-28T13:39:01.474Z,22.10
2019-05-28T13:41:30.907Z,22.20
2019-05-28T13:44:00.488Z,22.30
2019-05-28T13:46:30.338Z,22.30
2019-05-28T13:48:59.897Z,22.30
2019-05-28T13:51:32.466Z,22.40
2019-05-28T13:54:01.898Z,22.60
2019-05-28T13:56:31.401Z,22.90
2019-05-28T13:59:00.705Z,23.20
2019-05-28T14:02:07.625Z,23.30
2019-05-28T14:04:40.085Z,23.30
2019-05-28T14:07:10.760Z,23.40
2019-05-28T14:09:40.371Z,23.40
2019-05-28T14:12:09.806Z,23.40
2019-05-28T14:14:39.457Z,23.40
2019-05-28T14:17:12.736Z,23.30
2019-05-28T14:19:42.385Z,23.30
2019-05-28T14:22:12.207Z,23.20
2019-05-28T14:24:41.814Z,23.10
2019-05-28T14:27:15.427Z,23.00
2019-05-28T14:29:45.734Z,23.00
2019-05-28T14:32:16.737Z,22.90
2019-05-28T14:34:46.477Z,22.90
2019-05-28T14:37:16.010Z,23.00
2019-05-28T14:39:45.527Z,23.00
2019-05-28T14:42:17.522Z,23.00
2019-05-28T14:44:46.471Z,23.00
2019-05-28T14:47:16.144Z,23.10
2019-05-28T14:49:46.433Z,23.10
2019-05-28T14:52:15.763Z,23.10
2019-05-28T14:54:45.181Z,23.10
2019-05-28T14:57:14.629Z,22.90
2019-05-28T14:59:45.374Z,22.90
2019-05-28T15:02:14.969Z,22.70
2019-05-28T15:04:44.406Z,22.60
2019-05-28T15:07:15.103Z,22.50
2019-05-28T15:09:46.697Z,22.50
2019-05-28T15:12:16.155Z,22.40
2019-05-28T15:14:47.064Z,22.40
2019-05-28T15:17:17.623Z,22.40
2019-05-28T15:19:47.288Z,22.40
2019-05-28T15:22:16.758Z,22.40
2019-05-28T15:24:49.720Z,22.50
2019-05-28T15:27:20.848Z,22.50
2019-05-28T15:29:50.534Z,22.70
2019-05-28T15:32:19.977Z,22.70
2019-05-28T15:34:53.540Z,22.70
2019-05-28T15:37:23.542Z,22.70
2019-05-28T15:40:45.413Z,22.70
2019-05-28T15:43:14.764Z,22.50
2019-05-28T15:45:45.569Z,22.30
2019-05-28T15:48:15.036Z,22.10
2019-05-28T15:50:44.607Z,21.80
2019-05-28T15:53:14.001Z,21.60
2019-05-28T15:55:43.957Z,21.40
2019-05-28T15:58:14.046Z,21.10
2019-05-28T16:00:44.543Z,21.00
2019-05-28T16:03:21.453Z,20.80
2019-05-28T16:05:51.872Z,20.60
2019-05-28T16:08:21.700Z,20.40
2019-05-28T16:10:51.565Z,20.20
2019-05-28T16:13:21.232Z,19.90
2019-05-28T16:15:51.078Z,19.70
2019-05-28T16:18:20.838Z,19.50
2019-05-28T16:20:51.890Z,19.40
2019-05-28T16:23:21.605Z,19.30
2019-05-28T16:25:51.404Z,19.20
2019-05-28T16:28:20.926Z,19.20
2019-05-28T16:30:50.462Z,19.20
2019-05-28T16:33:19.834Z,19.20
2019-05-28T16:35:49.141Z,19.20
2019-05-28T16:38:18.452Z,19.20
2019-05-28T16:40:52.083Z,19.30
2019-05-28T16:43:21.924Z,19.40
2019-05-28T16:45:51.917Z,19.40
2019-05-28T16:48:21.455Z,19.30
2019-05-28T16:50:51.043Z,19.40
2019-05-28T16:53:20.838Z,19.40
2019-05-28T16:55:50.387Z,19.30
2019-05-28T16:58:19.721Z,19.30
2019-05-28T17:00:49.078Z,19.40
2019-05-28T17:03:18.571Z,19.30
2019-05-28T17:05:51.298Z,19.30
2019-05-28T17:08:20.650Z,19.30
2019-05-28T17:10:49.918Z,19.30
2019-05-28T17:13:19.203Z,19.30
2019-05-28T17:15:49.185Z,19.30
2019-05-28T17:18:19.528Z,19.30
2019-05-28T17:20:48.964Z,19.30
2019-05-28T17:23:18.464Z,19.30
2019-05-28T17:25:48.099Z,19.20
2019-05-28T17:28:17.812Z,19.20
2019-05-28T17:30:47.491Z,19.10
2019-05-28T17:33:16.888Z,19.10
2019-05-28T17:35:48.851Z,19.10
2019-05-28T17:38:18.207Z,19.10
2019-05-28T17:40:48.895Z,19.10
2019-05-28T17:43:18.742Z,19.10
2019-05-28T17:45:48.494Z,19.10
2019-05-28T17:48:17.913Z,19.10
2019-05-28T17:50:47.531Z,19.10
2019-05-28T17:53:17.214Z,19.10
2019-05-28T17:55:46.644Z,19.10
2019-05-28T17:58:16.141Z,19.00
2019-05-28T18:00:45.650Z,19.00
2019-05-28T18:03:15.166Z,18.90
2019-05-28T18:05:44.639Z,18.90
2019-05-28T18:08:13.938Z,18.80
2019-05-28T18:10:43.468Z,18.80
2019-05-28T18:13:12.994Z,18.80
2019-05-28T18:15:42.517Z,18.70
2019-05-28T18:18:11.895Z,18.70
2019-05-28T18:20:41.163Z,18.70
2019-05-28T18:23:10.666Z,18.70
2019-05-28T18:25:43.815Z,18.60
2019-05-28T18:28:15.647Z,18.60
2019-05-28T18:30:45.194Z,18.60
2019-05-28T18:33:14.958Z,18.60
2019-05-28T18:35:44.552Z,18.60
2019-05-28T18:38:14.295Z,18.60
2019-05-28T18:40:43.871Z,18.60
2019-05-28T18:43:13.469Z,18.50
2019-05-28T18:45:43.014Z,18.50
2019-05-28T18:48:12.520Z,18.50
2019-05-28T18:50:42.014Z,18.50
2019-05-28T18:53:12.340Z,18.50
2019-05-28T18:55:41.663Z,18.50
2019-05-28T18:58:13.170Z,18.50
2019-05-28T19:00:43.257Z,18.50
2019-05-28T19:03:12.781Z,18.40
2019-05-28T19:05:42.516Z,18.40
2019-05-28T19:08:11.901Z,18.40
2019-05-28T19:10:41.495Z,18.30
2019-05-28T19:13:11.218Z,18.30
2019-05-28T19:15:40.707Z,18.20
2019-05-28T19:18:10.143Z,18.20
2019-05-28T19:20:39.599Z,18.10
2019-05-28T19:23:09.237Z,18.10
2019-05-28T19:25:38.899Z,18.10
2019-05-28T19:28:08.241Z,18.10
2019-05-28T19:30:37.927Z,18.10
2019-05-28T19:33:10.900Z,18.10
2019-05-28T19:35:40.245Z,18.00
2019-05-28T19:38:11.239Z,18.00
2019-05-28T19:40:42.258Z,18.00
2019-05-28T19:43:11.871Z,18.00
2019-05-28T19:45:42.415Z,18.00
2019-05-28T19:48:12.124Z,18.00
2019-05-28T19:50:42.229Z,18.00
2019-05-28T19:53:11.676Z,18.00
2019-05-28T19:55:41.013Z,18.00
2019-05-28T19:58:10.564Z,18.00
2019-05-28T20:00:40.158Z,18.00
2019-05-28T20:03:09.534Z,18.00
2019-05-28T20:05:38.823Z,17.90
2019-05-28T20:08:15.599Z,17.90
2019-05-28T20:10:45.137Z,17.90
2019-05-28T20:13:19.774Z,17.80
2019-05-28T20:15:49.535Z,17.80
2019-05-28T20:18:26.596Z,17.70
2019-05-28T20:20:50.135Z,17.70
2019-05-28T20:23:19.853Z,17.70
2019-05-28T20:25:54.084Z,17.70
2019-05-28T20:28:23.538Z,17.60
2019-05-28T20:30:53.259Z,17.60
2019-05-28T20:33:23.665Z,17.60
2019-05-28T20:35:53.413Z,17.60
2019-05-28T20:38:26.243Z,17.60
2019-05-28T20:40:55.776Z,17.60
2019-05-28T20:43:25.717Z,17.60
2019-05-28T20:46:02.316Z,17.60
2019-05-28T20:48:31.591Z,17.60
2019-05-28T20:51:09.733Z,17.60
2019-05-28T20:53:36.153Z,17.60
2019-05-28T20:56:05.544Z,17.60
2019-05-28T20:58:40.320Z,17.70
2019-05-28T21:01:07.324Z,17.70
2019-05-28T21:03:36.976Z,17.80
2019-05-28T21:06:06.701Z,17.80
2019-05-28T21:08:36.905Z,17.80
2019-05-28T21:11:06.638Z,17.70
2019-05-28T21:13:38.100Z,17.60
2019-05-28T21:16:07.386Z,17.60
2019-05-28T21:18:37.881Z,17.60
2019-05-28T21:21:07.490Z,17.60
2019-05-28T21:23:36.995Z,17.60
2019-05-28T21:26:17.606Z,17.60
2019-05-28T21:28:47.497Z,17.60
2019-05-28T21:31:16.879Z,17.50
2019-05-28T21:33:46.257Z,17.40
2019-05-28T21:36:15.934Z,17.40
2019-05-28T21:38:45.194Z,17.40
2019-05-28T21:41:14.772Z,17.30
2019-05-28T21:43:46.535Z,17.30
2019-05-28T21:46:15.911Z,17.30
2019-05-28T21:48:48.389Z,17.20
2019-05-28T21:51:17.711Z,17.10
2019-05-28T21:53:47.921Z,17.10
2019-05-28T21:56:17.505Z,17.00
2019-05-28T21:58:46.951Z,16.90
2019-05-28T22:01:19.503Z,16.90
2019-05-28T22:03:48.906Z,16.80
2019-05-28T22:06:18.858Z,16.80
2019-05-28T22:08:55.923Z,16.80
2019-05-28T22:11:25.415Z,16.70
2019-05-28T22:13:55.982Z,16.70
2019-05-28T22:16:25.640Z,16.60
2019-05-28T22:18:56.197Z,16.60
2019-05-28T22:21:26.991Z,16.50
2019-05-28T22:23:56.507Z,16.50
2019-05-28T22:26:26.017Z,16.50
2019-05-28T22:28:55.360Z,16.40
2019-05-28T22:31:24.753Z,16.40
2019-05-28T22:33:54.315Z,16.40
2019-05-28T22:36:23.659Z,16.40
2019-05-28T22:39:11.255Z,16.40
2019-05-28T22:41:41.920Z,16.40
2019-05-28T22:44:11.321Z,16.40
2019-05-28T22:46:40.711Z,16.40
2019-05-28T22:49:10.977Z,16.40
2019-05-28T22:51:40.407Z,16.40
2019-05-28T22:54:09.796Z,16.40
2019-05-28T22:56:39.196Z,16.40
2019-05-28T22:59:08.645Z,16.40
2019-05-28T23:01:37.968Z,16.40
2019-05-28T23:04:07.246Z,16.40
2019-05-28T23:06:36.577Z,16.40
2019-05-28T23:09:07.782Z,16.40
2019-05-28T23:11:39.385Z,16.40
2019-05-28T23:14:08.782Z,16.40
2019-05-28T23:16:38.063Z,16.40
2019-05-28T23:19:10.854Z,16.30
2019-05-28T23:21:40.288Z,16.30
2019-05-28T23:24:09.555Z,16.30
2019-05-28T23:26:38.705Z,16.30
2019-05-28T23:29:07.894Z,16.30
2019-05-28T23:31:37.247Z,16.30
2019-05-28T23:34:06.551Z,16.30
2019-05-28T23:36:35.802Z,16.40
2019-05-28T23:39:06.961Z,16.40
2019-05-28T23:41:36.354Z,16.40
2019-05-28T23:44:05.886Z,16.40
2019-05-28T23:46:37.324Z,16.40
2019-05-28T23:49:06.738Z,16.50
2019-05-28T23:51:35.950Z,16.50
2019-05-28T23:54:05.594Z,16.60
2019-05-28T23:56:35.059Z,16.60
2019-05-28T23:59:05.569Z,16.50
